createdAt,value
2018-07-24T00:01:45.546Z,21.80
2018-07-24T00:04:13.746Z,17.73
2018-07-24T00:06:41.958Z,18.57
2018-07-24T00:09:10.299Z,20.77
2018-07-24T00:11:38.546Z,19.47
2018-07-24T00:14:06.759Z,18.40
2018-07-24T00:16:34.961Z,18.30
2018-07-24T00:19:03.179Z,18.00
2018-07-24T00:21:31.405Z,17.60
2018-07-24T00:23:59.729Z,18.83
2018-07-24T00:26:27.942Z,18.90
2018-07-24T00:28:56.153Z,18.07
2018-07-24T00:31:24.468Z,19.80
2018-07-24T00:33:52.620Z,19.37
2018-07-24T00:36:20.909Z,18.97
2018-07-24T00:38:49.305Z,19.40
2018-07-24T00:41:17.532Z,20.37
2018-07-24T00:43:45.713Z,19.70
2018-07-24T00:46:14.013Z,19.70
2018-07-24T00:48:42.378Z,20.60
2018-07-24T00:51:10.594Z,21.67
2018-07-24T00:53:38.809Z,19.70
2018-07-24T00:56:07.222Z,19.13
2018-07-24T00:58:35.480Z,21.07
2018-07-24T01:01:03.708Z,19.50
2018-07-24T01:03:32.085Z,18.90
2018-07-24T01:06:00.293Z,19.63
2018-07-24T01:08:28.512Z,19.40
2018-07-24T01:10:56.726Z,19.77
2018-07-24T01:13:24.926Z,19.20
2018-07-24T01:15:53.145Z,18.30
2018-07-24T01:18:21.343Z,19.30
2018-07-24T01:20:49.537Z,18.83
2018-07-24T01:23:17.757Z,19.40
2018-07-24T01:25:45.945Z,19.83
2018-07-24T01:28:14.171Z,20.07
2018-07-24T01:30:42.382Z,19.17
2018-07-24T01:33:10.585Z,25.10
2018-07-24T01:35:38.797Z,18.33
2018-07-24T01:38:07.031Z,17.80
2018-07-24T01:40:35.233Z,17.80
2018-07-24T01:43:03.456Z,19.00
2018-07-24T01:45:31.714Z,20.00
2018-07-24T01:47:59.956Z,20.57
2018-07-24T01:50:28.161Z,17.97
2018-07-24T01:52:56.385Z,20.40
2018-07-24T01:55:24.617Z,18.80
2018-07-24T01:57:52.811Z,18.40
2018-07-24T02:00:21.042Z,20.37
2018-07-24T02:02:49.336Z,19.20
2018-07-24T02:05:17.554Z,21.73
2018-07-24T02:07:45.796Z,19.10
2018-07-24T02:10:13.994Z,18.90
2018-07-24T02:12:42.221Z,19.13
2018-07-24T02:15:10.427Z,19.03
2018-07-24T02:17:38.635Z,20.10
2018-07-24T02:20:06.986Z,19.90
2018-07-24T02:22:35.223Z,17.77
2018-07-24T02:25:03.433Z,19.43
2018-07-24T02:27:31.659Z,19.63
2018-07-24T02:29:59.878Z,20.00
2018-07-24T02:32:28.072Z,19.80
2018-07-24T02:34:56.292Z,19.10
2018-07-24T02:37:24.497Z,20.23
2018-07-24T02:39:52.741Z,21.03
2018-07-24T02:42:20.948Z,18.53
2018-07-24T02:44:49.201Z,20.27
2018-07-24T02:47:17.412Z,18.90
2018-07-24T02:49:45.621Z,20.93
2018-07-24T02:52:13.908Z,19.03
2018-07-24T02:54:42.132Z,18.60
2018-07-24T02:57:10.400Z,18.20
2018-07-24T02:59:38.621Z,18.50
2018-07-24T03:02:07.278Z,19.70
2018-07-24T03:04:35.692Z,18.80
2018-07-24T03:07:04.006Z,19.00
2018-07-24T03:09:32.246Z,19.77
2018-07-24T03:12:00.476Z,20.27
2018-07-24T03:14:28.688Z,20.20
2018-07-24T03:16:56.900Z,19.13
2018-07-24T03:19:25.111Z,19.00
2018-07-24T03:21:53.405Z,19.63
2018-07-24T03:24:21.620Z,19.93
2018-07-24T03:26:49.942Z,20.07
2018-07-24T03:29:18.147Z,18.63
2018-07-24T03:31:46.537Z,19.63
2018-07-24T03:34:14.761Z,18.33
2018-07-24T03:36:42.966Z,20.27
2018-07-24T03:39:12.793Z,18.67
2018-07-24T03:41:41.072Z,18.90
2018-07-24T03:44:09.437Z,19.00
2018-07-24T03:46:37.650Z,19.13
2018-07-24T03:49:05.878Z,20.67
2018-07-24T03:51:34.100Z,20.00
2018-07-24T03:54:02.364Z,19.07
2018-07-24T03:56:30.686Z,21.07
2018-07-24T03:58:58.924Z,19.10
2018-07-24T04:01:27.253Z,19.40
2018-07-24T04:03:55.491Z,19.50
2018-07-24T04:06:23.707Z,18.60
2018-07-24T04:08:52.067Z,19.37
2018-07-24T04:11:20.366Z,19.50
2018-07-24T04:13:48.638Z,18.90
2018-07-24T04:16:16.889Z,20.57
2018-07-24T04:18:47.203Z,19.47
2018-07-24T04:21:16.398Z,19.70
2018-07-24T04:23:44.598Z,20.83
2018-07-24T04:26:12.817Z,18.33
2018-07-24T04:28:42.682Z,18.63
2018-07-24T04:31:11.152Z,21.60
2018-07-24T04:33:39.374Z,18.40
2018-07-24T04:36:07.605Z,19.17
2018-07-24T04:38:35.808Z,19.73
2018-07-24T04:41:04.275Z,18.50
2018-07-24T04:43:32.531Z,19.40
2018-07-24T04:46:00.689Z,21.30
2018-07-24T04:48:28.939Z,17.53
2018-07-24T04:50:57.113Z,23.07
2018-07-24T04:53:25.343Z,21.60
2018-07-24T04:55:53.548Z,19.67
2018-07-24T04:58:21.750Z,20.30
2018-07-24T05:00:49.953Z,19.03
2018-07-24T05:03:18.216Z,20.70
2018-07-24T05:05:46.366Z,20.07
2018-07-24T05:08:14.558Z,18.43
2018-07-24T05:10:42.788Z,20.37
2018-07-24T05:13:11.045Z,19.03
2018-07-24T05:15:42.234Z,19.53
2018-07-24T05:18:10.445Z,17.43
2018-07-24T05:20:38.639Z,17.47
2018-07-24T05:23:06.894Z,20.13
2018-07-24T05:25:35.114Z,18.03
2018-07-24T05:28:03.352Z,19.27
2018-07-24T05:30:31.618Z,19.33
2018-07-24T05:32:59.837Z,19.67
2018-07-24T05:35:28.055Z,20.63
2018-07-24T05:37:56.281Z,19.30
2018-07-24T05:40:24.620Z,20.47
2018-07-24T05:42:52.945Z,19.60
2018-07-24T05:45:21.174Z,19.67
2018-07-24T05:47:49.531Z,21.10
2018-07-24T05:50:17.740Z,19.53
2018-07-24T05:52:45.954Z,18.50
2018-07-24T05:55:14.343Z,21.20
2018-07-24T05:57:42.491Z,23.83
2018-07-24T06:00:10.742Z,19.70
2018-07-24T06:02:38.985Z,20.70
2018-07-24T06:05:07.210Z,19.80
2018-07-24T06:07:35.453Z,19.17
2018-07-24T06:10:03.701Z,19.67
2018-07-24T06:12:31.909Z,20.83
2018-07-24T06:15:00.103Z,22.53
2018-07-24T06:17:28.350Z,19.87
2018-07-24T06:19:57.907Z,21.23
2018-07-24T06:22:26.128Z,22.00
2018-07-24T06:24:54.327Z,22.93
2018-07-24T06:27:22.522Z,23.40
2018-07-24T06:29:50.717Z,23.00
2018-07-24T06:32:18.935Z,22.00
2018-07-24T06:34:47.167Z,25.10
2018-07-24T06:37:15.466Z,23.20
2018-07-24T06:39:43.750Z,24.17
2018-07-24T06:42:11.915Z,23.00
2018-07-24T06:44:40.163Z,23.37
2018-07-24T06:47:08.338Z,22.33
2018-07-24T06:49:36.557Z,23.47
2018-07-24T06:52:04.889Z,22.40
2018-07-24T06:54:33.076Z,22.73
2018-07-24T06:57:01.270Z,20.70
2018-07-24T06:59:29.491Z,21.10
2018-07-24T07:01:57.918Z,21.20
2018-07-24T07:04:26.257Z,21.73
2018-07-24T07:06:54.600Z,21.37
2018-07-24T07:09:23.006Z,20.40
2018-07-24T07:11:51.475Z,20.23
2018-07-24T07:14:20.310Z,20.10
2018-07-24T07:16:48.505Z,19.20
2018-07-24T07:19:16.737Z,20.60
2018-07-24T07:21:44.944Z,20.33
2018-07-24T07:24:13.142Z,20.63
2018-07-24T07:26:41.335Z,20.40
2018-07-24T07:29:09.576Z,20.53
2018-07-24T07:31:37.787Z,19.33
2018-07-24T07:34:06.068Z,19.53
2018-07-24T07:36:34.270Z,19.73
2018-07-24T07:39:02.491Z,20.87
2018-07-24T07:41:30.725Z,20.87
2018-07-24T07:43:58.994Z,19.83
2018-07-24T07:46:27.155Z,20.00
2018-07-24T07:48:55.363Z,19.03
2018-07-24T07:51:23.573Z,19.47
2018-07-24T07:53:51.790Z,20.00
2018-07-24T07:56:19.985Z,17.70
2018-07-24T07:58:48.270Z,18.23
2018-07-24T08:01:16.438Z,19.00
2018-07-24T08:03:44.637Z,19.30
2018-07-24T08:06:12.834Z,17.70
2018-07-24T08:08:41.077Z,17.93
2018-07-24T08:11:09.285Z,17.80
2018-07-24T08:13:37.510Z,18.17
2018-07-24T08:16:05.812Z,18.07
2018-07-24T08:18:34.014Z,16.77
2018-07-24T08:21:02.216Z,17.50
2018-07-24T08:23:30.483Z,17.60
2018-07-24T08:25:58.732Z,16.73
2018-07-24T08:28:26.953Z,18.17
2018-07-24T08:30:55.142Z,16.90
2018-07-24T08:33:23.354Z,17.10
2018-07-24T08:35:51.572Z,17.90
2018-07-24T08:38:19.760Z,16.93
2018-07-24T08:40:47.963Z,17.37
2018-07-24T08:43:16.160Z,17.73
2018-07-24T08:45:44.361Z,17.03
2018-07-24T08:48:12.580Z,18.13
2018-07-24T08:50:40.799Z,18.17
2018-07-24T08:53:09.179Z,18.90
2018-07-24T08:55:37.651Z,19.50
2018-07-24T08:58:05.495Z,18.50
2018-07-24T09:00:33.789Z,18.23
2018-07-24T09:03:01.992Z,16.10
2018-07-24T09:05:30.225Z,23.73
2018-07-24T09:07:58.561Z,18.17
2018-07-24T09:10:26.906Z,16.90
2018-07-24T09:12:55.415Z,17.83
2018-07-24T09:15:23.677Z,17.20
2018-07-24T09:17:51.908Z,17.57
2018-07-24T09:20:20.184Z,17.80
2018-07-24T09:22:48.390Z,17.33
2018-07-24T09:25:16.680Z,17.53
2018-07-24T09:27:44.898Z,18.00
2018-07-24T09:30:13.144Z,16.13
2018-07-24T09:32:41.358Z,16.60
2018-07-24T09:35:09.568Z,17.03
2018-07-24T09:37:37.806Z,16.63
2018-07-24T09:40:06.025Z,17.27
2018-07-24T09:42:34.238Z,18.47
2018-07-24T09:45:02.501Z,18.77
2018-07-24T09:47:30.707Z,17.50
2018-07-24T09:49:58.911Z,17.90
2018-07-24T09:52:27.138Z,16.80
2018-07-24T09:54:55.361Z,16.10
2018-07-24T09:57:23.580Z,17.93
2018-07-24T09:59:51.801Z,17.27
2018-07-24T10:02:20.364Z,15.77
2018-07-24T10:04:48.562Z,17.40
2018-07-24T10:07:16.756Z,15.90
2018-07-24T10:09:44.948Z,15.47
2018-07-24T10:12:13.210Z,16.43
2018-07-24T10:14:41.384Z,16.07
2018-07-24T10:17:09.591Z,20.13
2018-07-24T10:19:37.815Z,16.10
2018-07-24T10:22:06.069Z,15.77
2018-07-24T10:24:34.315Z,15.73
2018-07-24T10:27:02.510Z,15.50
2018-07-24T10:29:30.745Z,15.27
2018-07-24T10:31:58.941Z,17.43
2018-07-24T10:34:27.138Z,14.40
2018-07-24T10:36:55.345Z,15.03
2018-07-24T10:39:23.534Z,14.13
2018-07-24T10:41:51.759Z,14.23
2018-07-24T10:44:19.965Z,14.90
2018-07-24T10:46:48.173Z,13.60
2018-07-24T10:49:16.464Z,12.90
2018-07-24T10:51:44.712Z,14.10
2018-07-24T10:54:12.993Z,13.90
2018-07-24T10:56:41.265Z,13.50
2018-07-24T10:59:09.463Z,13.90
2018-07-24T11:01:37.659Z,13.37
2018-07-24T11:04:05.855Z,14.37
2018-07-24T11:06:34.069Z,14.07
2018-07-24T11:09:02.278Z,12.93
2018-07-24T11:11:30.489Z,13.60
2018-07-24T11:13:58.683Z,13.20
2018-07-24T11:16:26.891Z,13.47
2018-07-24T11:18:55.102Z,12.97
2018-07-24T11:21:23.318Z,14.50
2018-07-24T11:23:51.509Z,12.90
2018-07-24T11:26:19.720Z,13.50
2018-07-24T11:28:47.918Z,14.23
2018-07-24T11:31:16.143Z,12.70
2018-07-24T11:33:44.348Z,13.70
2018-07-24T11:36:12.563Z,13.63
2018-07-24T11:38:40.911Z,13.20
2018-07-24T11:41:09.284Z,13.63
2018-07-24T11:43:37.466Z,13.33
2018-07-24T11:46:05.674Z,14.43
2018-07-24T11:48:33.883Z,14.10
2018-07-24T11:51:02.141Z,14.60
2018-07-24T11:53:30.442Z,14.30
2018-07-24T11:55:58.650Z,15.00
2018-07-24T11:58:26.855Z,16.33
2018-07-24T12:00:55.057Z,15.00
2018-07-24T12:03:23.283Z,16.13
2018-07-24T12:05:51.491Z,13.87
2018-07-24T12:08:19.711Z,14.43
2018-07-24T12:10:47.916Z,14.27
2018-07-24T12:13:16.133Z,15.00
2018-07-24T12:15:44.347Z,16.40
2018-07-24T12:18:12.562Z,14.83
2018-07-24T12:20:40.775Z,15.37
2018-07-24T12:23:09.014Z,14.40
2018-07-24T12:25:37.262Z,14.77
2018-07-24T12:28:05.517Z,15.30
2018-07-24T12:30:33.731Z,14.63
2018-07-24T12:33:01.951Z,15.03
2018-07-24T12:35:30.159Z,15.00
2018-07-24T12:37:58.377Z,15.30
2018-07-24T12:40:26.570Z,14.60
2018-07-24T12:42:54.777Z,14.37
2018-07-24T12:45:22.975Z,14.43
2018-07-24T12:47:51.240Z,15.30
2018-07-24T12:50:19.802Z,15.30
2018-07-24T12:52:48.059Z,16.20
2018-07-24T12:55:16.208Z,15.03
2018-07-24T12:57:44.430Z,14.40
2018-07-24T13:00:12.635Z,14.90
2018-07-24T13:02:40.847Z,15.37
2018-07-24T13:05:09.062Z,15.77
2018-07-24T13:07:37.248Z,14.53
2018-07-24T13:10:05.508Z,14.67
2018-07-24T13:12:33.680Z,14.60
2018-07-24T13:15:01.884Z,15.10
2018-07-24T13:17:30.089Z,15.30
2018-07-24T13:19:58.294Z,15.07
2018-07-24T13:22:26.485Z,15.47
2018-07-24T13:24:54.686Z,13.63
2018-07-24T13:27:22.934Z,14.93
2018-07-24T13:29:51.141Z,14.37
2018-07-24T13:32:19.347Z,15.37
2018-07-24T13:34:47.570Z,14.03
2018-07-24T13:37:15.776Z,13.50
2018-07-24T13:39:44.006Z,14.70
2018-07-24T13:42:12.194Z,14.47
2018-07-24T13:44:40.400Z,13.93
2018-07-24T13:47:08.589Z,14.90
2018-07-24T13:49:36.794Z,15.33
2018-07-24T13:52:05.039Z,13.90
2018-07-24T13:54:33.220Z,14.10
2018-07-24T13:57:01.423Z,13.77
2018-07-24T13:59:29.626Z,14.67
2018-07-24T14:01:57.842Z,14.97
2018-07-24T14:04:26.053Z,14.83
2018-07-24T14:06:54.252Z,14.00
2018-07-24T14:09:22.467Z,14.50
2018-07-24T14:11:50.666Z,13.77
2018-07-24T14:14:18.890Z,13.57
2018-07-24T14:16:47.076Z,13.80
2018-07-24T14:19:15.288Z,14.33
2018-07-24T14:21:43.515Z,13.27
2018-07-24T14:24:11.744Z,13.93
2018-07-24T14:26:39.951Z,13.33
2018-07-24T14:29:08.214Z,13.50
2018-07-24T14:31:36.414Z,14.20
2018-07-24T14:34:04.697Z,14.33
2018-07-24T14:36:32.925Z,13.80
2018-07-24T14:39:01.152Z,13.70
2018-07-24T14:41:29.357Z,13.70
2018-07-24T14:43:57.556Z,13.00
2018-07-24T14:46:25.821Z,13.60
2018-07-24T14:48:55.033Z,14.60
2018-07-24T14:51:23.334Z,13.97
2018-07-24T14:53:51.592Z,13.00
2018-07-24T14:56:19.804Z,15.10
2018-07-24T14:58:48.027Z,13.63
2018-07-24T15:01:16.239Z,12.70
2018-07-24T15:03:44.445Z,14.67
2018-07-24T15:06:12.656Z,13.80
2018-07-24T15:08:40.853Z,12.77
2018-07-24T15:11:09.061Z,14.30
2018-07-24T15:13:37.262Z,13.60
2018-07-24T15:16:05.589Z,12.67
2018-07-24T15:18:33.799Z,13.33
2018-07-24T15:21:02.368Z,14.00
2018-07-24T15:23:30.567Z,13.33
2018-07-24T15:25:58.827Z,13.00
2018-07-24T15:28:27.038Z,13.80
2018-07-24T15:30:55.248Z,14.47
2018-07-24T15:33:23.451Z,13.30
2018-07-24T15:35:51.683Z,13.83
2018-07-24T15:38:19.884Z,13.13
2018-07-24T15:40:48.180Z,12.57
2018-07-24T15:43:16.935Z,12.90
2018-07-24T15:45:51.632Z,14.03
2018-07-24T15:48:19.843Z,13.50
2018-07-24T15:50:48.040Z,13.57
2018-07-24T15:53:16.241Z,14.13
2018-07-24T15:55:44.468Z,14.30
2018-07-24T15:58:12.670Z,13.00
2018-07-24T16:00:40.887Z,14.40
2018-07-24T16:03:09.108Z,14.00
2018-07-24T16:05:37.467Z,14.20
2018-07-24T16:08:05.910Z,13.70
2018-07-24T16:10:34.386Z,13.83
2018-07-24T16:13:02.607Z,14.77
2018-07-24T16:15:30.825Z,14.90
2018-07-24T16:17:59.030Z,14.43
2018-07-24T16:20:27.339Z,14.33
2018-07-24T16:22:55.552Z,16.07
2018-07-24T16:25:23.757Z,13.63
2018-07-24T16:27:51.958Z,14.87
2018-07-24T16:30:20.157Z,15.23
2018-07-24T16:32:48.366Z,16.13
2018-07-24T16:35:16.564Z,15.30
2018-07-24T16:37:44.754Z,16.70
2018-07-24T16:40:13.030Z,15.47
2018-07-24T16:42:41.230Z,17.13
2018-07-24T16:45:09.434Z,17.40
2018-07-24T16:47:37.752Z,18.83
2018-07-24T16:50:06.129Z,16.07
2018-07-24T16:52:34.369Z,16.30
2018-07-24T16:55:02.570Z,16.53
2018-07-24T16:57:30.856Z,17.37
2018-07-24T16:59:59.153Z,15.97
2018-07-24T17:02:27.366Z,16.63
2018-07-24T17:04:55.556Z,15.90
2018-07-24T17:07:23.757Z,16.40
2018-07-24T17:09:51.954Z,18.00
2018-07-24T17:12:20.161Z,15.90
2018-07-24T17:14:48.345Z,17.17
2018-07-24T17:17:16.548Z,18.60
2018-07-24T17:19:44.769Z,17.30
2018-07-24T17:22:12.953Z,18.10
2018-07-24T17:24:41.184Z,17.63
2018-07-24T17:27:09.401Z,17.50
2018-07-24T17:29:37.627Z,17.00
2018-07-24T17:32:06.023Z,17.17
2018-07-24T17:34:34.221Z,15.77
2018-07-24T17:37:02.426Z,16.70
2018-07-24T17:39:30.645Z,15.50
2018-07-24T17:41:58.841Z,16.57
2018-07-24T17:44:27.049Z,14.80
2018-07-24T17:46:55.243Z,15.90
2018-07-24T17:49:23.507Z,13.40
2018-07-24T17:51:51.670Z,12.40
2018-07-24T17:54:19.874Z,12.97
2018-07-24T17:56:48.067Z,13.10
2018-07-24T17:59:16.264Z,14.07
2018-07-24T18:01:44.470Z,14.10
2018-07-24T18:04:12.685Z,15.20
2018-07-24T18:06:40.893Z,14.27
2018-07-24T18:09:11.038Z,13.13
2018-07-24T18:11:39.318Z,12.63
2018-07-24T18:14:07.649Z,13.40
2018-07-24T18:16:35.876Z,14.83
2018-07-24T18:19:04.074Z,14.07
2018-07-24T18:21:32.267Z,14.23
2018-07-24T18:24:00.518Z,15.77
2018-07-24T18:26:28.840Z,15.07
2018-07-24T18:28:57.055Z,15.20
2018-07-24T18:31:25.247Z,14.43
2018-07-24T18:33:53.452Z,14.90
2018-07-24T18:36:21.644Z,15.80
2018-07-24T18:38:50.066Z,13.87
2018-07-24T18:41:18.259Z,15.00
2018-07-24T18:43:46.557Z,16.27
2018-07-24T18:46:15.086Z,15.50
2018-07-24T18:48:43.665Z,14.87
2018-07-24T18:51:11.901Z,15.70
2018-07-24T18:53:40.120Z,15.10
2018-07-24T18:56:08.330Z,16.50
2018-07-24T18:58:36.574Z,16.10
2018-07-24T19:01:04.805Z,15.53
2018-07-24T19:03:32.997Z,15.67
2018-07-24T19:06:01.206Z,17.17
2018-07-24T19:08:29.409Z,16.17
2018-07-24T19:10:57.625Z,16.40
2018-07-24T19:13:25.845Z,16.47
2018-07-24T19:15:54.094Z,14.77
2018-07-24T19:18:22.305Z,16.10
2018-07-24T19:20:50.521Z,15.33
2018-07-24T19:23:18.991Z,16.10
2018-07-24T19:25:47.193Z,15.47
2018-07-24T19:28:15.430Z,14.80
2018-07-24T19:30:43.733Z,15.83
2018-07-24T19:33:11.905Z,15.17
2018-07-24T19:35:40.118Z,14.50
2018-07-24T19:38:08.373Z,15.27
2018-07-24T19:40:36.583Z,15.00
2018-07-24T19:43:04.793Z,14.93
2018-07-24T19:45:33.029Z,14.50
2018-07-24T19:48:01.250Z,15.60
2018-07-24T19:50:29.456Z,14.93
2018-07-24T19:52:57.650Z,15.03
2018-07-24T19:55:25.849Z,15.20
2018-07-24T19:57:56.622Z,15.00
2018-07-24T20:00:24.837Z,14.57
2018-07-24T20:02:53.062Z,15.03
2018-07-24T20:05:21.302Z,14.80
2018-07-24T20:07:49.504Z,15.10
2018-07-24T20:10:17.848Z,14.33
2018-07-24T20:12:45.914Z,13.47
2018-07-24T20:15:15.785Z,14.33
2018-07-24T20:17:44.113Z,13.67
2018-07-24T20:20:12.423Z,13.97
2018-07-24T20:22:40.698Z,14.53
2018-07-24T20:25:08.850Z,13.00
2018-07-24T20:27:37.062Z,13.60
2018-07-24T20:30:05.944Z,14.57
2018-07-24T20:32:34.290Z,14.93
2018-07-24T20:35:02.556Z,14.03
2018-07-24T20:37:30.761Z,14.10
2018-07-24T20:39:58.981Z,12.70
2018-07-24T20:42:27.182Z,13.43
2018-07-24T20:44:55.390Z,14.73
2018-07-24T20:47:23.602Z,13.30
2018-07-24T20:49:52.052Z,13.07
2018-07-24T20:52:20.270Z,14.00
2018-07-24T20:54:48.464Z,14.80
2018-07-24T20:57:16.729Z,14.20
2018-07-24T20:59:44.923Z,16.33
2018-07-24T21:02:13.297Z,14.50
2018-07-24T21:04:41.512Z,14.53
2018-07-24T21:07:09.812Z,14.30
2018-07-24T21:09:38.021Z,13.70
2018-07-24T21:12:06.279Z,14.63
2018-07-24T21:14:34.467Z,13.30
2018-07-24T21:17:02.741Z,14.83
2018-07-24T21:19:30.958Z,14.30
2018-07-24T21:21:59.195Z,14.73
2018-07-24T21:24:27.378Z,14.43
2018-07-24T21:26:55.586Z,14.70
2018-07-24T21:29:23.821Z,14.53
2018-07-24T21:31:52.831Z,20.33
2018-07-24T21:34:21.027Z,13.97
2018-07-24T21:36:49.832Z,14.33
2018-07-24T21:39:18.025Z,13.50
2018-07-24T21:41:46.229Z,14.63
2018-07-24T21:44:14.441Z,13.90
2018-07-24T21:46:42.667Z,14.27
2018-07-24T21:49:10.892Z,13.63
2018-07-24T21:51:39.092Z,13.73
2018-07-24T21:54:07.351Z,14.10
2018-07-24T21:56:35.573Z,14.17
2018-07-24T21:59:03.839Z,15.20
2018-07-24T22:01:32.071Z,14.73
2018-07-24T22:04:00.659Z,15.50
2018-07-24T22:06:28.856Z,15.53
2018-07-24T22:08:57.212Z,13.63
2018-07-24T22:11:25.376Z,14.70
2018-07-24T22:13:53.593Z,14.30
2018-07-24T22:16:21.790Z,14.93
2018-07-24T22:18:50.002Z,16.60
2018-07-24T22:21:18.214Z,14.60
2018-07-24T22:23:46.432Z,15.17
2018-07-24T22:26:14.639Z,16.07
2018-07-24T22:28:42.853Z,16.10
2018-07-24T22:31:11.046Z,16.23
2018-07-24T22:33:39.282Z,15.97
2018-07-24T22:36:07.492Z,16.17
2018-07-24T22:38:35.716Z,15.57
2018-07-24T22:41:03.914Z,15.40
2018-07-24T22:43:32.120Z,17.90
2018-07-24T22:46:00.325Z,16.30
2018-07-24T22:48:28.542Z,16.67
2018-07-24T22:50:56.750Z,16.10
2018-07-24T22:53:24.965Z,18.60
2018-07-24T22:55:53.189Z,17.70
2018-07-24T22:58:21.414Z,15.00
2018-07-24T23:00:49.635Z,14.90
2018-07-24T23:03:17.849Z,14.87
2018-07-24T23:05:52.346Z,14.40
2018-07-24T23:08:20.560Z,13.87
2018-07-24T23:10:48.777Z,13.70
2018-07-24T23:13:16.979Z,14.23
2018-07-24T23:15:45.170Z,14.43
2018-07-24T23:18:13.376Z,15.03
2018-07-24T23:20:41.594Z,14.40
2018-07-24T23:23:09.785Z,13.77
2018-07-24T23:25:38.005Z,13.97
2018-07-24T23:28:06.272Z,13.07
2018-07-24T23:30:34.490Z,12.63
2018-07-24T23:33:02.686Z,12.70
2018-07-24T23:35:30.914Z,11.77
2018-07-24T23:37:59.120Z,12.53
2018-07-24T23:40:27.323Z,12.67
2018-07-24T23:42:55.542Z,13.43
2018-07-24T23:45:23.764Z,12.27
2018-07-24T23:47:51.978Z,12.70
2018-07-24T23:50:20.243Z,13.23
2018-07-24T23:52:48.442Z,11.43
2018-07-24T23:55:16.671Z,12.80
2018-07-24T23:57:44.876Z,13.77
